createdAt,value
2022-11-04T00:02:18.086Z,85.84
2022-11-04T00:04:46.102Z,85.71
2022-11-04T00:07:32.429Z,85.59
2022-11-04T00:10:01.436Z,85.40
2022-11-04T00:12:31.415Z,85.29
2022-11-04T00:15:20.944Z,85.49
2022-11-04T00:17:48.599Z,85.40
2022-11-04T00:20:36.724Z,85.24
2022-11-04T00:23:22.999Z,85.12
2022-11-04T00:26:09.238Z,85.48
2022-11-04T00:28:45.988Z,85.67
2022-11-04T00:31:32.397Z,85.72
2022-11-04T00:34:00.437Z,85.50
2022-11-04T00:36:28.385Z,85.43
2022-11-04T00:38:57.443Z,85.36
2022-11-04T00:41:28.705Z,85.87
2022-11-04T00:43:58.705Z,85.64
2022-11-04T00:46:29.656Z,85.32
2022-11-04T00:48:58.806Z,85.24
2022-11-04T00:51:27.305Z,85.33
2022-11-04T00:53:56.220Z,85.53
2022-11-04T00:56:25.009Z,84.98
2022-11-04T00:58:53.082Z,85.30
2022-11-04T01:01:21.759Z,85.18
2022-11-04T01:03:52.382Z,85.33
2022-11-04T01:06:22.636Z,85.63
2022-11-04T01:08:52.128Z,85.20
2022-11-04T01:11:19.961Z,85.44
2022-11-04T01:13:52.301Z,85.22
2022-11-04T01:16:21.286Z,85.36
2022-11-04T01:18:49.502Z,85.56
2022-11-04T01:21:18.419Z,85.21
2022-11-04T01:23:48.118Z,85.54
2022-11-04T01:26:24.945Z,85.25
2022-11-04T01:28:55.300Z,85.13
2022-11-04T01:31:30.733Z,85.04
2022-11-04T01:33:59.980Z,84.89
2022-11-04T01:36:28.953Z,85.17
2022-11-04T01:38:59.325Z,84.92
2022-11-04T01:41:31.073Z,84.91
2022-11-04T01:44:02.185Z,84.84
2022-11-04T01:46:34.454Z,85.02
2022-11-04T01:49:26.735Z,84.86
2022-11-04T01:52:11.474Z,84.65
2022-11-04T01:54:42.449Z,84.85
2022-11-04T01:57:15.282Z,84.58
2022-11-04T01:59:43.960Z,84.79
2022-11-04T02:02:12.109Z,84.84
2022-11-04T02:04:41.525Z,84.55
2022-11-04T02:07:12.182Z,84.83
2022-11-04T02:09:43.029Z,84.55
2022-11-04T02:12:29.568Z,84.83
2022-11-04T02:14:59.355Z,84.45
2022-11-04T02:17:40.567Z,84.82
2022-11-04T02:20:17.210Z,84.20
2022-11-04T02:23:13.744Z,84.75
2022-11-04T02:26:24.255Z,84.75
2022-11-04T02:29:17.982Z,84.96
2022-11-04T02:32:01.694Z,84.65
2022-11-04T02:34:55.404Z,84.26
2022-11-04T02:38:11.190Z,84.27
2022-11-04T02:41:19.597Z,84.22
2022-11-04T02:44:19.175Z,84.33
2022-11-04T02:46:47.738Z,84.04
2022-11-04T02:49:27.661Z,84.15
2022-11-04T02:52:16.512Z,83.91
2022-11-04T02:55:04.690Z,83.58
2022-11-04T02:57:37.501Z,83.80
2022-11-04T03:00:09.232Z,83.26
2022-11-04T03:02:46.698Z,83.29
2022-11-04T03:05:20.237Z,83.83
2022-11-04T03:07:53.688Z,83.02
2022-11-04T03:10:52.158Z,83.17
2022-11-04T03:13:28.397Z,83.01
2022-11-04T03:16:01.871Z,83.18
2022-11-04T03:18:51.889Z,83.09
2022-11-04T03:21:21.520Z,82.34
2022-11-04T03:23:49.280Z,82.37
2022-11-04T03:26:32.268Z,82.47
2022-11-04T03:29:12.885Z,82.24
2022-11-04T03:32:02.469Z,82.61
2022-11-04T03:34:31.280Z,82.80
2022-11-04T03:37:00.423Z,82.03
2022-11-04T03:39:29.628Z,82.63
2022-11-04T03:42:01.570Z,83.05
2022-11-04T03:44:31.316Z,83.05
2022-11-04T03:47:00.604Z,83.26
2022-11-04T03:49:29.078Z,82.87
2022-11-04T03:51:58.878Z,83.00
2022-11-04T03:54:27.060Z,82.89
2022-11-04T03:57:14.795Z,82.56
2022-11-04T04:00:05.702Z,82.44
2022-11-04T04:02:58.021Z,82.95
2022-11-04T04:05:41.666Z,82.66
2022-11-04T04:12:05.237Z,83.44
2022-11-04T04:14:49.906Z,82.89
2022-11-04T04:17:53.782Z,83.20
2022-11-04T04:20:27.870Z,82.83
2022-11-04T04:23:52.754Z,83.09
2022-11-04T04:26:41.923Z,82.92
2022-11-04T04:29:12.898Z,82.79
2022-11-04T04:31:51.267Z,82.86
2022-11-04T04:34:29.694Z,82.16
2022-11-04T04:37:24.833Z,82.82
2022-11-04T04:40:23.873Z,82.69
2022-11-04T04:43:12.395Z,82.58
2022-11-04T04:45:47.472Z,82.52
2022-11-04T04:48:15.483Z,82.35
2022-11-04T04:50:49.762Z,82.43
2022-11-04T04:53:18.039Z,82.08
2022-11-04T04:55:46.028Z,82.61
2022-11-04T04:58:14.922Z,82.41
2022-11-04T05:00:42.842Z,82.68
2022-11-04T05:03:11.022Z,82.71
2022-11-04T05:05:39.348Z,82.24
2022-11-04T05:08:09.501Z,82.51
2022-11-04T05:10:37.746Z,82.50
2022-11-04T05:13:25.057Z,82.42
2022-11-04T05:15:54.269Z,82.22
2022-11-04T05:18:22.258Z,81.82
2022-11-04T05:20:52.427Z,82.23
2022-11-04T05:23:20.355Z,81.45
2022-11-04T05:25:48.318Z,81.26
2022-11-04T05:28:17.267Z,81.79
2022-11-04T05:30:45.375Z,81.25
2022-11-04T05:33:13.583Z,82.00
2022-11-04T05:35:42.644Z,81.18
2022-11-04T05:38:10.634Z,81.07
2022-11-04T05:40:38.630Z,80.80
2022-11-04T05:43:07.949Z,81.30
2022-11-04T05:45:35.951Z,80.97
2022-11-04T05:48:05.820Z,81.21
2022-11-04T05:50:35.700Z,81.18
2022-11-04T05:53:03.642Z,81.18
2022-11-04T05:55:31.623Z,80.56
2022-11-04T05:58:00.929Z,80.33
2022-11-04T06:00:29.372Z,80.53
2022-11-04T06:03:00.538Z,80.77
2022-11-04T06:05:30.456Z,80.23
2022-11-04T06:07:58.459Z,79.84
2022-11-04T06:10:26.901Z,80.47
2022-11-04T06:12:55.948Z,80.11
2022-11-04T06:15:24.001Z,79.97
2022-11-04T06:17:51.997Z,80.35
2022-11-04T06:20:20.125Z,79.91
2022-11-04T06:22:48.141Z,79.58
2022-11-04T06:25:16.329Z,79.81
2022-11-04T06:27:44.531Z,79.60
2022-11-04T06:30:13.401Z,78.94
2022-11-04T06:32:41.398Z,79.28
2022-11-04T06:35:12.368Z,79.25
2022-11-04T06:37:40.386Z,78.72
2022-11-04T06:40:08.904Z,79.17
2022-11-04T06:42:38.487Z,78.60
2022-11-04T06:45:06.828Z,78.49
2022-11-04T06:47:34.807Z,78.52
2022-11-04T06:50:04.421Z,78.21
2022-11-04T06:52:32.388Z,78.66
2022-11-04T06:55:00.437Z,78.10
2022-11-04T06:57:28.572Z,78.24
2022-11-04T06:59:56.784Z,78.02
2022-11-04T07:02:25.787Z,77.80
2022-11-04T07:07:30.303Z,77.75
2022-11-04T07:09:58.476Z,77.82
2022-11-04T07:12:26.496Z,77.56
2022-11-04T07:14:56.273Z,77.26
2022-11-04T07:17:24.414Z,77.69
2022-11-04T07:19:52.431Z,77.38
2022-11-04T07:22:20.461Z,77.37
2022-11-04T07:24:48.542Z,77.41
2022-11-04T07:27:16.815Z,77.19
2022-11-04T07:29:44.760Z,77.07
2022-11-04T07:32:12.876Z,77.36
2022-11-04T07:34:40.895Z,77.13
2022-11-04T07:37:08.832Z,77.02
2022-11-04T07:39:37.016Z,77.04
2022-11-04T07:42:04.982Z,76.87
2022-11-04T07:44:33.007Z,76.60
2022-11-04T07:47:01.280Z,76.62
2022-11-04T07:49:29.315Z,76.41
2022-11-04T07:51:57.323Z,76.70
2022-11-04T07:54:26.398Z,76.10
2022-11-04T07:56:54.429Z,76.11
2022-11-04T07:59:22.439Z,76.64
2022-11-04T08:01:52.749Z,75.96
2022-11-04T08:04:23.007Z,76.15
2022-11-04T08:06:50.994Z,76.14
2022-11-04T08:09:19.165Z,75.81
2022-11-04T08:11:47.136Z,76.14
2022-11-04T08:14:15.077Z,76.20
2022-11-04T08:16:44.723Z,76.25
2022-11-04T08:19:12.772Z,75.94
2022-11-04T08:21:40.780Z,75.97
2022-11-04T08:24:10.694Z,75.91
2022-11-04T08:26:39.311Z,75.85
2022-11-04T08:29:08.922Z,75.50
2022-11-04T08:31:39.793Z,75.52
2022-11-04T08:34:09.235Z,75.89
2022-11-04T08:36:41.561Z,75.74
2022-11-04T08:39:11.460Z,75.69
2022-11-04T08:41:42.963Z,75.55
2022-11-04T08:44:14.977Z,75.21
2022-11-04T08:46:48.242Z,75.39
2022-11-04T08:49:21.021Z,75.47
2022-11-04T08:51:58.040Z,74.92
2022-11-04T08:54:28.080Z,75.35
2022-11-04T08:56:56.598Z,75.50
2022-11-04T08:59:27.768Z,75.08
2022-11-04T09:01:55.985Z,75.18
2022-11-04T09:04:24.621Z,75.34
2022-11-04T09:06:54.027Z,75.25
2022-11-04T09:09:22.868Z,75.00
2022-11-04T09:11:50.874Z,75.06
2022-11-04T09:14:23.643Z,74.80
2022-11-04T09:16:51.581Z,74.83
2022-11-04T09:19:19.538Z,74.68
2022-11-04T09:21:47.698Z,75.00
2022-11-04T09:24:15.611Z,75.03
2022-11-04T09:26:45.413Z,74.93
2022-11-04T09:29:14.650Z,74.85
2022-11-04T09:31:44.054Z,75.39
2022-11-04T09:34:12.073Z,74.85
2022-11-04T09:36:40.887Z,74.57
2022-11-04T09:39:08.881Z,74.81
2022-11-04T09:42:08.042Z,74.83
2022-11-04T09:45:26.528Z,74.73
2022-11-04T09:48:05.895Z,74.50
2022-11-04T09:50:45.725Z,75.06
2022-11-04T09:53:22.368Z,74.34
2022-11-04T09:55:58.320Z,74.74
2022-11-04T09:58:26.783Z,74.45
2022-11-04T10:01:05.303Z,74.51
2022-11-04T10:03:51.417Z,75.00
2022-11-04T10:06:47.660Z,74.63
2022-11-04T10:09:23.842Z,74.50
2022-11-04T10:12:23.518Z,74.87
2022-11-04T10:15:09.484Z,74.98
2022-11-04T10:17:53.638Z,74.90
2022-11-04T10:20:33.416Z,74.89
2022-11-04T10:23:34.729Z,74.81
2022-11-04T10:26:20.105Z,75.14
2022-11-04T10:28:59.654Z,75.03
2022-11-04T10:31:27.654Z,75.27
2022-11-04T10:34:01.871Z,75.89
2022-11-04T10:36:31.775Z,75.76
2022-11-04T10:39:03.575Z,75.72
2022-11-04T10:41:36.248Z,76.02
2022-11-04T10:44:22.680Z,76.25
2022-11-04T10:47:15.763Z,76.07
2022-11-04T10:50:06.860Z,76.49
2022-11-04T10:52:36.712Z,76.15
2022-11-04T10:55:34.777Z,76.77
2022-11-04T10:58:03.496Z,76.58
2022-11-04T11:00:44.656Z,76.26
2022-11-04T11:03:42.344Z,76.65
2022-11-04T11:06:30.721Z,76.72
2022-11-04T11:09:15.448Z,76.71
2022-11-04T11:11:50.903Z,77.21
2022-11-04T11:14:31.131Z,77.37
2022-11-04T11:17:22.757Z,76.91
2022-11-04T11:20:08.587Z,77.70
2022-11-04T11:22:42.338Z,77.27
2022-11-04T11:25:25.678Z,77.16
2022-11-04T11:28:12.743Z,77.13
2022-11-04T11:31:00.869Z,78.19
2022-11-04T11:33:39.644Z,77.29
2022-11-04T11:36:27.743Z,77.51
2022-11-04T11:39:07.210Z,77.96
2022-11-04T11:41:53.212Z,77.99
2022-11-04T11:44:40.274Z,77.85
2022-11-04T11:47:28.576Z,78.29
2022-11-04T11:50:19.664Z,78.08
2022-11-04T11:52:49.847Z,78.23
2022-11-04T11:55:26.961Z,78.42
2022-11-04T12:01:19.362Z,78.60
2022-11-04T12:10:50.434Z,78.46
2022-11-04T12:13:28.750Z,79.07
2022-11-04T12:16:03.854Z,78.85
2022-11-04T12:19:05.518Z,78.83
2022-11-04T12:21:40.246Z,78.58
2022-11-04T12:24:35.412Z,79.11
2022-11-04T12:27:23.208Z,79.02
2022-11-04T12:30:12.696Z,79.32
2022-11-04T12:32:46.964Z,78.95
2022-11-04T12:35:45.251Z,79.11
2022-11-04T12:38:37.338Z,78.77
2022-11-04T12:41:46.825Z,79.10
2022-11-04T12:44:38.287Z,78.80
2022-11-04T12:48:00.181Z,79.18
2022-11-04T12:51:12.399Z,79.40
2022-11-04T12:53:51.871Z,78.90
2022-11-04T12:56:31.302Z,79.44
2022-11-04T12:59:34.965Z,79.52
2022-11-04T13:02:18.159Z,79.79
2022-11-04T13:04:58.186Z,79.61
2022-11-04T13:07:33.826Z,79.63
2022-11-04T13:10:08.391Z,79.38
2022-11-04T13:12:42.031Z,79.21
2022-11-04T13:15:29.467Z,79.43
2022-11-04T13:18:07.359Z,79.21
2022-11-04T13:20:51.254Z,79.71
2022-11-04T13:23:37.681Z,79.72
2022-11-04T13:26:12.763Z,79.77
2022-11-04T13:28:44.715Z,79.95
2022-11-04T13:31:40.549Z,79.70
2022-11-04T13:34:27.293Z,79.63
2022-11-04T13:37:18.366Z,79.85
2022-11-04T13:40:15.062Z,79.52
2022-11-04T13:42:46.370Z,79.55
2022-11-04T13:45:21.447Z,79.79
2022-11-04T13:47:54.203Z,79.44
2022-11-04T13:50:38.509Z,79.91
2022-11-04T13:53:10.498Z,80.02
2022-11-04T13:55:51.245Z,79.69
2022-11-04T13:58:27.865Z,79.99
2022-11-04T14:01:27.851Z,79.58
2022-11-04T14:04:20.777Z,80.01
2022-11-04T14:06:53.203Z,79.61
2022-11-04T14:09:32.887Z,79.91
2022-11-04T14:12:11.792Z,79.59
2022-11-04T14:14:43.176Z,79.91
2022-11-04T14:17:34.371Z,79.95
2022-11-04T14:20:12.840Z,79.54
2022-11-04T14:23:00.112Z,80.07
2022-11-04T14:25:44.935Z,79.94
2022-11-04T14:28:15.748Z,79.93
2022-11-04T14:30:46.374Z,79.86
2022-11-04T14:33:33.811Z,79.82
2022-11-04T14:36:19.954Z,79.82
2022-11-04T14:38:56.870Z,80.06
2022-11-04T14:41:33.090Z,79.91
2022-11-04T14:44:13.560Z,80.09
2022-11-04T14:46:47.605Z,79.92
2022-11-04T14:49:40.401Z,79.91
2022-11-04T14:52:25.250Z,79.98
2022-11-04T14:55:08.959Z,80.14
2022-11-04T14:57:42.204Z,80.09
2022-11-04T15:00:35.018Z,80.26
2022-11-04T15:03:45.486Z,80.28
2022-11-04T15:06:07.495Z,80.28
2022-11-04T15:08:42.455Z,79.66
2022-11-04T15:11:19.800Z,80.17
2022-11-04T15:13:50.739Z,80.10
2022-11-04T15:16:29.951Z,80.27
2022-11-04T15:19:00.405Z,80.19
2022-11-04T15:21:28.867Z,80.33
2022-11-04T15:23:58.471Z,80.45
2022-11-04T15:26:30.782Z,80.18
2022-11-04T15:29:10.573Z,80.16
2022-11-04T15:31:39.992Z,80.07
2022-11-04T15:34:14.233Z,80.09
2022-11-04T15:36:44.773Z,79.92
2022-11-04T15:39:24.594Z,80.05
2022-11-04T15:42:18.608Z,80.06
2022-11-04T15:44:55.586Z,80.17
2022-11-04T15:47:29.753Z,80.10
2022-11-04T15:50:23.168Z,80.11
2022-11-04T15:52:58.475Z,80.43
2022-11-04T15:55:29.044Z,80.24
2022-11-04T15:57:57.780Z,79.91
2022-11-04T16:00:32.894Z,80.26
2022-11-04T16:03:01.894Z,80.55
2022-11-04T16:05:37.961Z,80.49
2022-11-04T16:08:25.773Z,80.34
2022-11-04T16:11:13.416Z,80.13
2022-11-04T16:13:44.461Z,80.03
2022-11-04T16:16:18.035Z,80.01
2022-11-04T16:18:50.595Z,80.17
2022-11-04T16:21:35.853Z,80.29
2022-11-04T16:24:30.698Z,79.97
2022-11-04T16:26:59.391Z,80.08
2022-11-04T16:29:31.927Z,80.28
2022-11-04T16:32:25.691Z,80.29
2022-11-04T16:34:59.790Z,80.02
2022-11-04T16:37:28.795Z,79.94
2022-11-04T16:40:00.367Z,80.11
2022-11-04T16:42:28.427Z,79.97
2022-11-04T16:45:03.130Z,79.90
2022-11-04T16:47:37.565Z,79.89
2022-11-04T16:50:18.670Z,79.68
2022-11-04T16:52:47.026Z,80.18
2022-11-04T16:55:16.356Z,80.10
2022-11-04T16:57:46.419Z,80.02
2022-11-04T17:00:27.417Z,79.88
2022-11-04T17:02:55.497Z,79.53
2022-11-04T17:05:23.462Z,79.94
2022-11-04T17:07:56.342Z,79.84
2022-11-04T17:10:29.526Z,79.96
2022-11-04T17:12:57.671Z,79.80
2022-11-04T17:15:26.829Z,79.65
2022-11-04T17:17:54.840Z,79.86
2022-11-04T17:20:23.699Z,79.71
2022-11-04T17:22:53.804Z,79.63
2022-11-04T17:25:24.788Z,79.98
2022-11-04T17:27:52.975Z,79.95
2022-11-04T17:30:23.996Z,80.40
2022-11-04T17:32:52.087Z,79.90
2022-11-04T17:35:20.132Z,79.85
2022-11-04T17:37:48.352Z,80.09
2022-11-04T17:40:19.089Z,80.01
2022-11-04T17:43:11.919Z,79.71
2022-11-04T17:45:42.701Z,80.02
2022-11-04T17:48:11.915Z,79.82
2022-11-04T17:50:42.293Z,79.95
2022-11-04T17:53:10.843Z,79.79
2022-11-04T17:55:42.092Z,80.12
2022-11-04T17:58:10.268Z,79.54
2022-11-04T18:00:38.289Z,79.84
2022-11-04T18:03:07.296Z,79.82
2022-11-04T18:05:36.513Z,79.39
2022-11-04T18:08:04.702Z,79.99
2022-11-04T18:10:32.676Z,79.76
2022-11-04T18:13:02.351Z,80.11
2022-11-04T18:15:31.127Z,79.67
2022-11-04T18:17:59.308Z,79.94
2022-11-04T18:20:29.603Z,79.70
2022-11-04T18:23:00.697Z,79.76
2022-11-04T18:25:28.770Z,79.64
2022-11-04T18:27:56.945Z,79.68
2022-11-04T18:30:24.970Z,79.90
2022-11-04T18:32:53.245Z,79.99
2022-11-04T18:35:21.360Z,79.96
2022-11-04T18:37:49.433Z,79.71
2022-11-04T18:40:18.477Z,80.00
2022-11-04T18:42:47.632Z,79.89
2022-11-04T18:45:15.603Z,80.23
2022-11-04T18:47:43.612Z,79.42
2022-11-04T18:50:13.415Z,80.20
2022-11-04T18:52:41.834Z,80.34
2022-11-04T18:55:10.315Z,80.17
2022-11-04T18:57:38.391Z,79.69
2022-11-04T19:00:07.004Z,80.05
2022-11-04T19:02:37.666Z,79.55
2022-11-04T19:05:06.117Z,80.07
2022-11-04T19:07:34.535Z,80.04
2022-11-04T19:10:02.589Z,80.12
2022-11-04T19:12:50.005Z,80.22
2022-11-04T19:15:18.096Z,80.47
2022-11-04T19:17:46.051Z,80.20
2022-11-04T19:20:15.317Z,79.90
2022-11-04T19:22:43.370Z,80.14
2022-11-04T19:25:11.732Z,80.34
2022-11-04T19:27:40.742Z,79.98
2022-11-04T19:30:09.236Z,79.89
2022-11-04T19:32:37.653Z,79.88
2022-11-04T19:35:07.170Z,79.86
2022-11-04T19:37:34.797Z,79.97
2022-11-04T19:40:02.775Z,80.17
2022-11-04T19:42:50.384Z,79.95
2022-11-04T19:45:19.048Z,80.04
2022-11-04T19:47:47.048Z,79.88
2022-11-04T19:50:16.751Z,80.02
2022-11-04T19:52:44.994Z,80.18
2022-11-04T19:55:13.109Z,80.06
2022-11-04T19:57:41.679Z,80.60
2022-11-04T20:00:11.183Z,80.24
2022-11-04T20:02:39.022Z,80.37
2022-11-04T20:05:10.610Z,79.96
2022-11-04T20:07:39.987Z,80.08
2022-11-04T20:10:08.910Z,80.02
2022-11-04T20:12:56.158Z,80.35
2022-11-04T20:15:25.712Z,80.46
2022-11-04T20:17:53.700Z,80.23
2022-11-04T20:20:21.890Z,80.41
2022-11-04T20:22:49.826Z,80.07
2022-11-04T20:25:17.827Z,80.35
2022-11-04T20:27:47.334Z,80.12
2022-11-04T20:30:14.958Z,80.22
2022-11-04T20:32:42.948Z,80.41
2022-11-04T20:35:11.163Z,80.65
2022-11-04T20:37:39.319Z,80.31
2022-11-04T20:40:08.567Z,80.66
2022-11-04T20:42:37.695Z,80.21
2022-11-04T20:45:06.043Z,80.10
2022-11-04T20:47:33.990Z,80.61
2022-11-04T20:50:03.632Z,80.56
2022-11-04T20:52:31.716Z,80.25
2022-11-04T20:54:59.748Z,80.30
2022-11-04T20:57:29.480Z,80.52
2022-11-04T20:59:57.470Z,80.63
2022-11-04T21:02:26.701Z,79.95
2022-11-04T21:04:55.465Z,79.75
2022-11-04T21:07:23.723Z,80.17
2022-11-04T21:09:51.904Z,80.42
2022-11-04T21:12:20.339Z,80.65
2022-11-04T21:14:48.340Z,80.30
2022-11-04T21:17:16.421Z,80.20
2022-11-04T21:19:44.605Z,80.32
2022-11-04T21:22:12.581Z,80.47
2022-11-04T21:24:41.089Z,80.51
2022-11-04T21:27:09.625Z,80.06
2022-11-04T21:29:37.661Z,80.36
2022-11-04T21:32:05.902Z,80.30
2022-11-04T21:34:34.087Z,80.04
2022-11-04T21:37:16.769Z,80.26
2022-11-04T21:39:47.415Z,80.65
2022-11-04T21:42:15.339Z,80.97
2022-11-04T21:44:43.309Z,80.47
2022-11-04T21:47:11.389Z,80.58
2022-11-04T21:49:39.279Z,80.79
2022-11-04T21:52:07.172Z,80.69
2022-11-04T21:54:36.262Z,81.01
2022-11-04T21:57:04.280Z,80.58
2022-11-04T21:59:33.064Z,80.85
2022-11-04T22:02:01.870Z,80.96
2022-11-04T22:04:30.084Z,80.65
2022-11-04T22:06:58.050Z,80.79
2022-11-04T22:09:26.284Z,81.10
2022-11-04T22:11:54.314Z,81.09
2022-11-04T22:15:18.651Z,81.00
2022-11-04T22:18:05.168Z,81.58
2022-11-04T22:20:35.455Z,80.90
2022-11-04T22:23:24.215Z,81.15
2022-11-04T22:25:52.471Z,81.22
2022-11-04T22:28:20.618Z,80.76
2022-11-04T22:30:48.689Z,81.08
2022-11-04T22:33:17.523Z,81.53
2022-11-04T22:35:46.830Z,81.37
2022-11-04T22:38:15.607Z,81.25
2022-11-04T22:40:45.616Z,81.53
2022-11-04T22:43:14.528Z,81.19
2022-11-04T22:45:42.439Z,81.43
2022-11-04T22:48:10.532Z,81.21
2022-11-04T22:50:38.542Z,81.46
2022-11-04T22:53:06.447Z,81.37
2022-11-04T22:55:36.998Z,81.46
2022-11-04T22:58:05.035Z,81.42
2022-11-04T23:00:33.065Z,81.37
2022-11-04T23:03:01.416Z,81.73
2022-11-04T23:05:32.788Z,81.56
2022-11-04T23:08:01.255Z,81.38
2022-11-04T23:10:51.149Z,81.41
2022-11-04T23:13:37.487Z,81.43
2022-11-04T23:16:24.279Z,81.55
2022-11-04T23:18:52.601Z,81.92
2022-11-04T23:21:41.140Z,81.47
2022-11-04T23:24:27.248Z,81.50
2022-11-04T23:26:55.388Z,81.35
2022-11-04T23:29:41.836Z,81.45
2022-11-04T23:32:10.092Z,81.50
2022-11-04T23:34:56.274Z,81.20
2022-11-04T23:37:24.355Z,81.28
2022-11-04T23:39:52.395Z,81.48
2022-11-04T23:42:22.148Z,81.16
2022-11-04T23:45:15.440Z,81.25
2022-11-04T23:48:06.684Z,80.94
2022-11-04T23:50:54.401Z,81.24
2022-11-04T23:53:41.030Z,81.08
2022-11-04T23:56:30.963Z,81.41
2022-11-04T23:59:17.383Z,81.33
